VJH812 LIMC-EDDM
Flight info
| Callsign | VJH812 |
|---|---|
| Flight time | 1h 5m |
| Altitude | 18000 |
| Route | OSKOR M985 TAGIP T876 GUNGO Y246 TISAX T102 IVKAL/N0399F240 T102 NINUR T101 ANDEC/N0393F230 T101 BETOS BETOS1B |
| Aircraft | E190/M-SDE1E2E3FGHIJ3J4J7P2RWXY/LB1D1G1 |
Departure
| Time | 2026-05-06 16:52 |
|---|---|
| Airport | Milan Malpensa International Airport (LIMC) |
Arrival
| Time | 2026-05-06 17:57 |
|---|---|
| Airport | Munich Airport (EDDM) |
| Time | Latitude | Longitude | Altitude | Speed | Heading |
|---|---|---|---|---|---|
| 2026-05-06 16:20 | 45.62850 | 8.71881 | 742 ft | 0 kts | 78° |
| 2026-05-06 16:41 | 45.62851 | 8.71888 | 742 ft | 2 kts | 78° |
| 2026-05-06 16:41 | 45.62857 | 8.71930 | 741 ft | 6 kts | 79° |
| 2026-05-06 16:41 | 45.62833 | 8.71980 | 740 ft | 8 kts | 159° |
| 2026-05-06 16:41 | 45.62767 | 8.72001 | 738 ft | 11 kts | 168° |
| 2026-05-06 16:42 | 45.62738 | 8.72009 | 737 ft | 2 kts | 170° |
| 2026-05-06 16:42 | 45.62702 | 8.72018 | 736 ft | 7 kts | 170° |
| 2026-05-06 16:42 | 45.62632 | 8.72037 | 735 ft | 12 kts | 169° |
| 2026-05-06 16:42 | 45.62542 | 8.72062 | 735 ft | 14 kts | 169° |
| 2026-05-06 16:43 | 45.62441 | 8.72091 | 734 ft | 13 kts | 170° |
| 2026-05-06 16:43 | 45.62342 | 8.72117 | 734 ft | 15 kts | 169° |
| 2026-05-06 16:43 | 45.62223 | 8.72151 | 731 ft | 18 kts | 169° |
| 2026-05-06 16:43 | 45.62112 | 8.72181 | 728 ft | 14 kts | 169° |
| 2026-05-06 16:44 | 45.61998 | 8.72212 | 725 ft | 18 kts | 169° |
| 2026-05-06 16:44 | 45.61868 | 8.72249 | 720 ft | 17 kts | 168° |
| 2026-05-06 16:44 | 45.61748 | 8.72282 | 716 ft | 17 kts | 169° |
| 2026-05-06 16:44 | 45.61627 | 8.72316 | 713 ft | 17 kts | 169° |
| 2026-05-06 16:45 | 45.61516 | 8.72346 | 710 ft | 15 kts | 169° |
| 2026-05-06 16:45 | 45.61429 | 8.72366 | 707 ft | 13 kts | 185° |
| 2026-05-06 16:45 | 45.61383 | 8.72260 | 707 ft | 13 kts | 261° |
| 2026-05-06 16:45 | 45.61337 | 8.72197 | 706 ft | 11 kts | 179° |
| 2026-05-06 16:46 | 45.61241 | 8.72222 | 702 ft | 16 kts | 169° |
| 2026-05-06 16:46 | 45.61113 | 8.72257 | 697 ft | 20 kts | 170° |
| 2026-05-06 16:46 | 45.60962 | 8.72297 | 693 ft | 20 kts | 169° |
| 2026-05-06 16:46 | 45.60841 | 8.72332 | 691 ft | 17 kts | 168° |
| 2026-05-06 16:47 | 45.60750 | 8.72356 | 690 ft | 11 kts | 169° |
| 2026-05-06 16:47 | 45.60672 | 8.72395 | 690 ft | 12 kts | 141° |
| 2026-05-06 16:47 | 45.60639 | 8.72509 | 690 ft | 13 kts | 98° |
| 2026-05-06 16:47 | 45.60628 | 8.72652 | 690 ft | 15 kts | 95° |
| 2026-05-06 16:48 | 45.60618 | 8.72801 | 691 ft | 15 kts | 95° |
| 2026-05-06 16:48 | 45.60606 | 8.72967 | 690 ft | 18 kts | 98° |
| 2026-05-06 16:48 | 45.60592 | 8.73153 | 690 ft | 19 kts | 89° |
| 2026-05-06 16:48 | 45.60641 | 8.73276 | 688 ft | 15 kts | 28° |
| 2026-05-06 16:49 | 45.60752 | 8.73342 | 685 ft | 18 kts | 22° |
| 2026-05-06 16:49 | 45.60881 | 8.73406 | 684 ft | 20 kts | 3° |
| 2026-05-06 16:49 | 45.61023 | 8.73375 | 684 ft | 20 kts | 349° |
| 2026-05-06 16:49 | 45.61161 | 8.73336 | 687 ft | 20 kts | 349° |
| 2026-05-06 16:50 | 45.61299 | 8.73299 | 690 ft | 19 kts | 349° |
| 2026-05-06 16:50 | 45.61431 | 8.73262 | 694 ft | 18 kts | 351° |
| 2026-05-06 16:50 | 45.61554 | 8.73229 | 697 ft | 17 kts | 349° |
| 2026-05-06 16:50 | 45.61627 | 8.73326 | 696 ft | 17 kts | 77° |
| 2026-05-06 16:51 | 45.61607 | 8.73498 | 696 ft | 19 kts | 119° |
| 2026-05-06 16:51 | 45.61602 | 8.73684 | 696 ft | 16 kts | 62° |
| 2026-05-06 16:51 | 45.61686 | 8.73720 | 698 ft | 4 kts | 349° |
| 2026-05-06 16:51 | 45.61792 | 8.73691 | 700 ft | 48 kts | 350° |
| 2026-05-06 16:52 | 45.62412 | 8.73520 | 713 ft | 130 kts | 348° |
| 2026-05-06 16:52 | 45.63420 | 8.73209 | 1126 ft | 163 kts | 347° |
| 2026-05-06 16:52 | 45.64534 | 8.72913 | 2114 ft | 166 kts | 351° |
| 2026-05-06 16:52 | 45.65689 | 8.72825 | 2659 ft | 191 kts | 1° |
| 2026-05-06 16:53 | 45.67115 | 8.72827 | 3166 ft | 221 kts | 1° |
| 2026-05-06 16:53 | 45.68738 | 8.72690 | 3820 ft | 239 kts | 344° |
| 2026-05-06 16:53 | 45.70308 | 8.71876 | 3965 ft | 241 kts | 352° |
| 2026-05-06 16:53 | 45.72044 | 8.72122 | 4515 ft | 265 kts | 10° |
| 2026-05-06 16:54 | 45.73830 | 8.72411 | 5809 ft | 263 kts | 359° |
| 2026-05-06 16:54 | 45.75592 | 8.72234 | 7087 ft | 258 kts | 8° |
| 2026-05-06 16:54 | 45.77178 | 8.73192 | 8218 ft | 254 kts | 44° |
| 2026-05-06 16:54 | 45.78065 | 8.75293 | 9220 ft | 252 kts | 81° |
| 2026-05-06 16:55 | 45.77908 | 8.77693 | 10129 ft | 251 kts | 118° |
| 2026-05-06 16:55 | 45.77021 | 8.80001 | 10184 ft | 281 kts | 119° |
| 2026-05-06 16:55 | 45.75761 | 8.82127 | 10185 ft | 281 kts | 149° |
| 2026-05-06 16:55 | 45.73919 | 8.83078 | 10380 ft | 278 kts | 167° |
| 2026-05-06 16:56 | 45.72047 | 8.83921 | 10877 ft | 286 kts | 160° |
| 2026-05-06 16:56 | 45.70231 | 8.85092 | 11412 ft | 299 kts | 154° |
| 2026-05-06 16:56 | 45.68432 | 8.86621 | 12003 ft | 312 kts | 148° |
| 2026-05-06 16:56 | 45.66676 | 8.88516 | 12648 ft | 319 kts | 142° |
| 2026-05-06 16:57 | 45.65066 | 8.90684 | 13301 ft | 323 kts | 136° |
| 2026-05-06 16:57 | 45.63606 | 8.93113 | 13957 ft | 327 kts | 130° |
| 2026-05-06 16:57 | 45.62297 | 8.95817 | 14620 ft | 333 kts | 124° |
| 2026-05-06 16:57 | 45.61177 | 8.98734 | 15293 ft | 338 kts | 119° |
| 2026-05-06 16:58 | 45.60255 | 9.01849 | 15974 ft | 343 kts | 113° |
| 2026-05-06 16:58 | 45.59549 | 9.05105 | 16657 ft | 350 kts | 108° |
| 2026-05-06 16:58 | 45.59056 | 9.08523 | 17352 ft | 357 kts | 102° |
| 2026-05-06 16:58 | 45.58790 | 9.12066 | 18058 ft | 363 kts | 97° |
| 2026-05-06 16:59 | 45.58756 | 9.15655 | 18772 ft | 371 kts | 91° |
| 2026-05-06 16:59 | 45.58958 | 9.19352 | 19504 ft | 380 kts | 86° |
| 2026-05-06 16:59 | 45.59398 | 9.23075 | 20247 ft | 389 kts | 81° |
| 2026-05-06 16:59 | 45.60083 | 9.26846 | 21004 ft | 399 kts | 76° |
| 2026-05-06 17:00 | 45.61007 | 9.30589 | 21783 ft | 406 kts | 71° |
| 2026-05-06 17:00 | 45.62170 | 9.34283 | 22559 ft | 412 kts | 66° |
| 2026-05-06 17:00 | 45.63570 | 9.37896 | 23340 ft | 418 kts | 60° |
| 2026-05-06 17:00 | 45.65179 | 9.41352 | 24119 ft | 423 kts | 56° |
| 2026-05-06 17:01 | 45.66914 | 9.44774 | 24588 ft | 419 kts | 62° |
| 2026-05-06 17:01 | 45.67938 | 9.48514 | 23875 ft | 406 kts | 84° |
| 2026-05-06 17:01 | 45.68069 | 9.52416 | 23380 ft | 384 kts | 97° |
| 2026-05-06 17:01 | 45.67888 | 9.56034 | 23688 ft | 348 kts | 101° |
| 2026-05-06 17:02 | 45.67798 | 9.59360 | 24065 ft | 328 kts | 97° |
| 2026-05-06 17:02 | 45.67823 | 9.62682 | 24564 ft | 341 kts | 94° |
| 2026-05-06 17:02 | 45.68255 | 9.66084 | 23882 ft | 365 kts | 73° |
| 2026-05-06 17:02 | 45.69005 | 9.69462 | 23869 ft | 356 kts | 89° |
| 2026-05-06 17:03 | 45.68906 | 9.72961 | 24066 ft | 365 kts | 105° |
| 2026-05-06 17:03 | 45.68507 | 9.76696 | 24019 ft | 392 kts | 105° |
| 2026-05-06 17:03 | 45.68093 | 9.80660 | 24016 ft | 418 kts | 104° |
| 2026-05-06 17:03 | 45.67664 | 9.84864 | 24006 ft | 437 kts | 104° |
| 2026-05-06 17:04 | 45.67233 | 9.89133 | 23994 ft | 438 kts | 104° |
| 2026-05-06 17:04 | 45.66800 | 9.93387 | 23984 ft | 439 kts | 104° |
| 2026-05-06 17:04 | 45.66359 | 9.97701 | 23994 ft | 440 kts | 104° |
| 2026-05-06 17:04 | 45.65915 | 10.02029 | 24007 ft | 440 kts | 104° |
| 2026-05-06 17:05 | 45.65475 | 10.06313 | 24004 ft | 438 kts | 104° |
| 2026-05-06 17:05 | 45.65484 | 10.10652 | 24027 ft | 453 kts | 83° |
| 2026-05-06 17:05 | 45.66588 | 10.14888 | 24041 ft | 463 kts | 61° |
| 2026-05-06 17:05 | 45.68426 | 10.18652 | 24040 ft | 466 kts | 56° |
| 2026-05-06 17:06 | 45.70294 | 10.22391 | 24034 ft | 465 kts | 56° |
| 2026-05-06 17:06 | 45.72182 | 10.26171 | 24029 ft | 462 kts | 56° |
| 2026-05-06 17:06 | 45.74047 | 10.29913 | 24034 ft | 465 kts | 56° |
| 2026-05-06 17:06 | 45.75911 | 10.33656 | 24042 ft | 462 kts | 56° |
| 2026-05-06 17:07 | 45.77770 | 10.37394 | 24044 ft | 463 kts | 56° |
| 2026-05-06 17:07 | 45.79625 | 10.41133 | 24047 ft | 465 kts | 56° |
| 2026-05-06 17:07 | 45.81496 | 10.44908 | 24046 ft | 462 kts | 56° |
| 2026-05-06 17:07 | 45.83346 | 10.48647 | 24048 ft | 462 kts | 56° |
| 2026-05-06 17:08 | 45.85218 | 10.52438 | 24050 ft | 465 kts | 56° |
| 2026-05-06 17:08 | 45.87070 | 10.56189 | 24045 ft | 463 kts | 56° |
| 2026-05-06 17:08 | 45.88933 | 10.59970 | 24049 ft | 464 kts | 56° |
| 2026-05-06 17:08 | 45.90786 | 10.63735 | 24051 ft | 465 kts | 56° |
| 2026-05-06 17:09 | 45.92700 | 10.67450 | 24043 ft | 465 kts | 48° |
| 2026-05-06 17:09 | 45.95251 | 10.70310 | 24078 ft | 466 kts | 29° |
| 2026-05-06 17:09 | 45.98058 | 10.72557 | 24053 ft | 463 kts | 27° |
| 2026-05-06 17:09 | 46.00898 | 10.74759 | 24043 ft | 464 kts | 27° |
| 2026-05-06 17:10 | 46.03731 | 10.76942 | 24042 ft | 463 kts | 26° |
| 2026-05-06 17:10 | 46.06558 | 10.79119 | 24040 ft | 464 kts | 26° |
| 2026-05-06 17:10 | 46.09398 | 10.81306 | 24045 ft | 462 kts | 26° |
| 2026-05-06 17:10 | 46.12216 | 10.83481 | 24038 ft | 462 kts | 26° |
| 2026-05-06 17:11 | 46.15054 | 10.85673 | 24038 ft | 462 kts | 26° |
| 2026-05-06 17:11 | 46.17902 | 10.87874 | 24039 ft | 461 kts | 27° |
| 2026-05-06 17:11 | 46.20722 | 10.90057 | 24055 ft | 464 kts | 26° |
| 2026-05-06 17:11 | 46.23504 | 10.92213 | 24047 ft | 462 kts | 26° |
| 2026-05-06 17:12 | 46.26308 | 10.94388 | 24041 ft | 464 kts | 26° |
| 2026-05-06 17:12 | 46.29096 | 10.96555 | 24059 ft | 461 kts | 26° |
| 2026-05-06 17:12 | 46.31877 | 10.98717 | 24061 ft | 463 kts | 26° |
| 2026-05-06 17:12 | 46.34609 | 11.00843 | 24055 ft | 461 kts | 26° |
| 2026-05-06 17:13 | 46.37377 | 11.03001 | 24059 ft | 461 kts | 26° |
| 2026-05-06 17:13 | 46.40064 | 11.05070 | 24059 ft | 459 kts | 22° |
| 2026-05-06 17:13 | 46.42998 | 11.06243 | 24083 ft | 453 kts | 1° |
| 2026-05-06 17:13 | 46.45987 | 11.06422 | 24068 ft | 450 kts | 356° |
| 2026-05-06 17:14 | 46.49132 | 11.06461 | 24061 ft | 447 kts | 355° |
| 2026-05-06 17:14 | 46.52259 | 11.06474 | 24058 ft | 447 kts | 355° |
| 2026-05-06 17:14 | 46.55327 | 11.06481 | 24075 ft | 446 kts | 355° |
| 2026-05-06 17:14 | 46.58450 | 11.06484 | 24072 ft | 448 kts | 355° |
| 2026-05-06 17:15 | 46.61557 | 11.06489 | 24067 ft | 447 kts | 355° |
| 2026-05-06 17:15 | 46.64647 | 11.06429 | 24070 ft | 444 kts | 350° |
| 2026-05-06 17:15 | 46.67682 | 11.05910 | 24071 ft | 440 kts | 347° |
| 2026-05-06 17:15 | 46.70725 | 11.05347 | 24060 ft | 441 kts | 347° |
| 2026-05-06 17:16 | 46.73745 | 11.04786 | 24058 ft | 441 kts | 347° |
| 2026-05-06 17:16 | 46.76781 | 11.04222 | 24050 ft | 441 kts | 347° |
| 2026-05-06 17:16 | 46.79843 | 11.03652 | 24053 ft | 439 kts | 347° |
| 2026-05-06 17:16 | 46.82857 | 11.03079 | 24061 ft | 440 kts | 347° |
| 2026-05-06 17:17 | 46.85895 | 11.02501 | 24055 ft | 441 kts | 347° |
| 2026-05-06 17:17 | 46.88918 | 11.01927 | 24057 ft | 441 kts | 347° |
| 2026-05-06 17:17 | 46.91951 | 11.01348 | 24057 ft | 441 kts | 347° |
| 2026-05-06 17:17 | 46.94997 | 11.00973 | 24041 ft | 446 kts | 358° |
| 2026-05-06 17:18 | 46.98117 | 11.01394 | 24071 ft | 447 kts | 2° |
| 2026-05-06 17:18 | 47.01180 | 11.01865 | 24074 ft | 448 kts | 2° |
| 2026-05-06 17:18 | 47.04252 | 11.02334 | 24028 ft | 432 kts | 2° |
| 2026-05-06 17:18 | 47.07149 | 11.02775 | 23566 ft | 418 kts | 1° |
| 2026-05-06 17:19 | 47.10030 | 11.03210 | 22764 ft | 414 kts | 2° |
| 2026-05-06 17:19 | 47.12856 | 11.03638 | 21801 ft | 414 kts | 2° |
| 2026-05-06 17:19 | 47.15708 | 11.04071 | 20890 ft | 412 kts | 3° |
| 2026-05-06 17:19 | 47.18534 | 11.04501 | 20075 ft | 407 kts | 3° |
| 2026-05-06 17:20 | 47.21319 | 11.04925 | 19325 ft | 401 kts | 4° |
| 2026-05-06 17:20 | 47.24040 | 11.05340 | 18587 ft | 395 kts | 4° |
| 2026-05-06 17:20 | 47.26747 | 11.05754 | 18026 ft | 393 kts | 4° |
| 2026-05-06 17:20 | 47.29485 | 11.06172 | 17967 ft | 400 kts | 4° |
| 2026-05-06 17:21 | 47.32217 | 11.06590 | 17925 ft | 396 kts | 4° |
| 2026-05-06 17:21 | 47.34960 | 11.06972 | 17923 ft | 391 kts | 360° |
| 2026-05-06 17:21 | 47.37666 | 11.07236 | 17921 ft | 390 kts | 6° |
| 2026-05-06 17:21 | 47.40346 | 11.07644 | 17897 ft | 390 kts | 4° |
| 2026-05-06 17:22 | 47.42947 | 11.08724 | 17726 ft | 389 kts | 28° |
| 2026-05-06 17:22 | 47.45219 | 11.10850 | 17560 ft | 388 kts | 32° |
| 2026-05-06 17:22 | 47.47515 | 11.12847 | 17416 ft | 387 kts | 30° |
| 2026-05-06 17:22 | 47.49874 | 11.14781 | 17279 ft | 387 kts | 28° |
| 2026-05-06 17:23 | 47.52235 | 11.16677 | 17144 ft | 385 kts | 28° |
| 2026-05-06 17:23 | 47.54567 | 11.18538 | 17173 ft | 385 kts | 28° |
| 2026-05-06 17:23 | 47.56928 | 11.20419 | 17168 ft | 384 kts | 28° |
| 2026-05-06 17:23 | 47.59243 | 11.22264 | 17005 ft | 371 kts | 28° |
| 2026-05-06 17:24 | 47.61470 | 11.24039 | 16361 ft | 367 kts | 28° |
| 2026-05-06 17:24 | 47.63712 | 11.25828 | 15518 ft | 368 kts | 28° |
| 2026-05-06 17:24 | 47.65956 | 11.27621 | 14800 ft | 368 kts | 28° |
| 2026-05-06 17:24 | 47.68293 | 11.29489 | 14550 ft | 403 kts | 28° |
| 2026-05-06 17:25 | 47.70766 | 11.31463 | 14306 ft | 394 kts | 28° |
| 2026-05-06 17:25 | 47.73107 | 11.33343 | 13952 ft | 377 kts | 28° |
| 2026-05-06 17:25 | 47.75366 | 11.35156 | 13552 ft | 366 kts | 28° |
| 2026-05-06 17:25 | 47.77593 | 11.36944 | 13186 ft | 364 kts | 28° |
| 2026-05-06 17:26 | 47.79818 | 11.38732 | 12779 ft | 362 kts | 28° |
| 2026-05-06 17:26 | 47.82019 | 11.40503 | 12407 ft | 360 kts | 28° |
| 2026-05-06 17:26 | 47.84209 | 11.42267 | 12016 ft | 359 kts | 28° |
| 2026-05-06 17:26 | 47.86388 | 11.44022 | 11661 ft | 357 kts | 28° |
| 2026-05-06 17:27 | 47.88542 | 11.45760 | 11296 ft | 355 kts | 28° |
| 2026-05-06 17:27 | 47.90719 | 11.47518 | 10957 ft | 353 kts | 28° |
| 2026-05-06 17:27 | 47.92846 | 11.49238 | 10885 ft | 350 kts | 28° |
| 2026-05-06 17:27 | 47.94972 | 11.50958 | 10880 ft | 353 kts | 28° |
| 2026-05-06 17:28 | 47.97142 | 11.52715 | 10874 ft | 352 kts | 28° |
| 2026-05-06 17:28 | 47.99285 | 11.54453 | 10837 ft | 345 kts | 28° |
| 2026-05-06 17:28 | 48.01351 | 11.56128 | 10365 ft | 335 kts | 28° |
| 2026-05-06 17:28 | 48.03348 | 11.57751 | 10111 ft | 324 kts | 28° |
| 2026-05-06 17:29 | 48.05318 | 11.59352 | 10067 ft | 318 kts | 28° |
| 2026-05-06 17:29 | 48.07223 | 11.60902 | 10032 ft | 313 kts | 28° |
| 2026-05-06 17:29 | 48.09135 | 11.62444 | 9696 ft | 305 kts | 28° |
| 2026-05-06 17:29 | 48.11015 | 11.63985 | 9284 ft | 310 kts | 27° |
| 2026-05-06 17:30 | 48.12890 | 11.65519 | 8840 ft | 304 kts | 27° |
| 2026-05-06 17:30 | 48.14714 | 11.67010 | 8393 ft | 298 kts | 27° |
| 2026-05-06 17:30 | 48.16531 | 11.68495 | 7959 ft | 293 kts | 26° |
| 2026-05-06 17:30 | 48.18285 | 11.69930 | 7864 ft | 291 kts | 26° |
| 2026-05-06 17:31 | 48.20079 | 11.71397 | 7884 ft | 294 kts | 26° |
| 2026-05-06 17:31 | 48.21856 | 11.72851 | 7853 ft | 294 kts | 26° |
| 2026-05-06 17:31 | 48.23666 | 11.74335 | 7847 ft | 292 kts | 26° |
| 2026-05-06 17:31 | 48.25438 | 11.75777 | 7804 ft | 284 kts | 23° |
| 2026-05-06 17:32 | 48.26952 | 11.77384 | 7841 ft | 265 kts | 49° |
| 2026-05-06 17:32 | 48.27728 | 11.80051 | 7858 ft | 297 kts | 84° |
| 2026-05-06 17:32 | 48.27494 | 11.83129 | 7725 ft | 301 kts | 110° |
| 2026-05-06 17:32 | 48.26666 | 11.85935 | 7369 ft | 291 kts | 111° |
| 2026-05-06 17:33 | 48.26413 | 11.88853 | 6894 ft | 281 kts | 90° |
| 2026-05-06 17:33 | 48.26385 | 11.91735 | 6418 ft | 274 kts | 90° |
| 2026-05-06 17:33 | 48.26345 | 11.94571 | 5952 ft | 267 kts | 90° |
| 2026-05-06 17:33 | 48.26289 | 11.97267 | 5840 ft | 257 kts | 90° |
| 2026-05-06 17:34 | 48.26230 | 11.99966 | 6034 ft | 261 kts | 90° |
| 2026-05-06 17:34 | 48.26242 | 12.02659 | 6021 ft | 263 kts | 86° |
| 2026-05-06 17:34 | 48.26302 | 12.05405 | 6019 ft | 263 kts | 86° |
| 2026-05-06 17:34 | 48.26361 | 12.08082 | 5876 ft | 254 kts | 86° |
| 2026-05-06 17:35 | 48.26424 | 12.10729 | 5451 ft | 256 kts | 86° |
| 2026-05-06 17:35 | 48.26491 | 12.13411 | 5080 ft | 261 kts | 86° |
| 2026-05-06 17:35 | 48.26558 | 12.16140 | 5038 ft | 261 kts | 86° |
| 2026-05-06 17:36 | 48.26928 | 12.21503 | 5022 ft | 256 kts | 58° |
| 2026-05-06 17:36 | 48.28117 | 12.23317 | 5049 ft | 244 kts | 18° |
| 2026-05-06 17:36 | 48.29728 | 12.23747 | 5056 ft | 232 kts | 355° |
| 2026-05-06 17:36 | 48.31343 | 12.23749 | 5023 ft | 232 kts | 354° |
| 2026-05-06 17:37 | 48.32881 | 12.23353 | 5020 ft | 221 kts | 325° |
| 2026-05-06 17:37 | 48.33930 | 12.21756 | 5043 ft | 217 kts | 297° |
| 2026-05-06 17:37 | 48.34601 | 12.19730 | 5030 ft | 215 kts | 294° |
| 2026-05-06 17:37 | 48.35233 | 12.17738 | 5012 ft | 206 kts | 294° |
| 2026-05-06 17:38 | 48.35836 | 12.15833 | 5016 ft | 196 kts | 294° |
| 2026-05-06 17:38 | 48.36411 | 12.14014 | 5078 ft | 195 kts | 294° |
| 2026-05-06 17:38 | 48.36992 | 12.12135 | 5030 ft | 197 kts | 291° |
| 2026-05-06 17:38 | 48.37014 | 12.10102 | 5000 ft | 200 kts | 257° |
| 2026-05-06 17:39 | 48.36694 | 12.08080 | 4980 ft | 202 kts | 261° |
| 2026-05-06 17:39 | 48.36455 | 12.05984 | 4796 ft | 202 kts | 263° |
| 2026-05-06 17:39 | 48.36268 | 12.03955 | 4545 ft | 193 kts | 264° |
| 2026-05-06 17:39 | 48.36108 | 12.01999 | 4301 ft | 183 kts | 265° |
| 2026-05-06 17:40 | 48.35964 | 12.00150 | 4061 ft | 175 kts | 265° |
| 2026-05-06 17:40 | 48.35831 | 11.98386 | 3833 ft | 166 kts | 265° |
| 2026-05-06 17:40 | 48.35704 | 11.96712 | 3675 ft | 154 kts | 265° |
| 2026-05-06 17:40 | 48.35588 | 11.95154 | 3463 ft | 148 kts | 266° |
| 2026-05-06 17:41 | 48.35474 | 11.93635 | 3245 ft | 148 kts | 266° |
| 2026-05-06 17:41 | 48.35363 | 11.92146 | 3027 ft | 139 kts | 265° |
| 2026-05-06 17:41 | 48.35257 | 11.90744 | 2820 ft | 126 kts | 265° |
| 2026-05-06 17:41 | 48.35165 | 11.89531 | 2645 ft | 114 kts | 265° |
| 2026-05-06 17:42 | 48.35077 | 11.88357 | 2529 ft | 113 kts | 266° |
| 2026-05-06 17:42 | 48.34987 | 11.87166 | 2384 ft | 115 kts | 265° |
| 2026-05-06 17:42 | 48.34895 | 11.85943 | 2226 ft | 119 kts | 265° |
| 2026-05-06 17:42 | 48.34802 | 11.84718 | 2091 ft | 111 kts | 264° |
| 2026-05-06 17:43 | 48.34710 | 11.83518 | 2143 ft | 128 kts | 263° |
| 2026-05-06 17:43 | 48.34600 | 11.82114 | 2496 ft | 142 kts | 265° |
| 2026-05-06 17:43 | 48.34475 | 11.80594 | 2961 ft | 150 kts | 264° |
| 2026-05-06 17:43 | 48.34338 | 11.79068 | 3510 ft | 149 kts | 267° |
| 2026-05-06 17:44 | 48.34220 | 11.77535 | 4124 ft | 147 kts | 264° |
| 2026-05-06 17:44 | 48.34075 | 11.76024 | 4693 ft | 149 kts | 263° |
| 2026-05-06 17:44 | 48.34003 | 11.74456 | 5166 ft | 153 kts | 268° |
| 2026-05-06 17:44 | 48.33681 | 11.72921 | 5701 ft | 158 kts | 251° |
| 2026-05-06 17:45 | 48.33231 | 11.71446 | 6273 ft | 159 kts | 249° |
| 2026-05-06 17:45 | 48.32702 | 11.69996 | 6406 ft | 156 kts | 238° |
| 2026-05-06 17:45 | 48.31660 | 11.69425 | 6028 ft | 186 kts | 175° |
| 2026-05-06 17:45 | 48.30605 | 11.70636 | 5732 ft | 191 kts | 136° |
| 2026-05-06 17:46 | 48.29972 | 11.72325 | 5476 ft | 188 kts | 106° |
| 2026-05-06 17:46 | 48.29641 | 11.74329 | 5287 ft | 219 kts | 104° |
| 2026-05-06 17:46 | 48.29256 | 11.76689 | 5034 ft | 238 kts | 104° |
| 2026-05-06 17:46 | 48.28853 | 11.79163 | 4979 ft | 246 kts | 104° |
| 2026-05-06 17:47 | 48.28450 | 11.81636 | 5027 ft | 245 kts | 104° |
| 2026-05-06 17:47 | 48.28043 | 11.84127 | 5044 ft | 244 kts | 104° |
| 2026-05-06 17:47 | 48.27638 | 11.86591 | 5036 ft | 243 kts | 104° |
| 2026-05-06 17:47 | 48.27237 | 11.89026 | 5044 ft | 245 kts | 102° |
| 2026-05-06 17:48 | 48.27176 | 11.91545 | 5065 ft | 241 kts | 84° |
| 2026-05-06 17:48 | 48.27281 | 11.94052 | 5037 ft | 240 kts | 84° |
| 2026-05-06 17:48 | 48.27385 | 11.96545 | 5033 ft | 239 kts | 84° |
| 2026-05-06 17:48 | 48.27489 | 11.99033 | 5045 ft | 239 kts | 84° |
| 2026-05-06 17:49 | 48.27595 | 12.01522 | 5094 ft | 240 kts | 84° |
| 2026-05-06 17:49 | 48.27700 | 12.04022 | 5040 ft | 241 kts | 84° |
| 2026-05-06 17:49 | 48.27836 | 12.06509 | 5034 ft | 240 kts | 75° |
| 2026-05-06 17:49 | 48.28634 | 12.08535 | 4863 ft | 219 kts | 31° |
| 2026-05-06 17:50 | 48.29940 | 12.09527 | 4492 ft | 210 kts | 14° |
| 2026-05-06 17:50 | 48.31318 | 12.10359 | 4105 ft | 215 kts | 14° |
| 2026-05-06 17:50 | 48.32691 | 12.11178 | 4043 ft | 208 kts | 14° |
| 2026-05-06 17:50 | 48.34002 | 12.11558 | 3974 ft | 175 kts | 339° |
| 2026-05-06 17:51 | 48.34863 | 12.10665 | 4003 ft | 142 kts | 299° |
| 2026-05-06 17:51 | 48.35285 | 12.09386 | 4003 ft | 135 kts | 279° |
| 2026-05-06 17:51 | 48.35421 | 12.08005 | 4030 ft | 134 kts | 285° |
| 2026-05-06 17:51 | 48.35665 | 12.06641 | 4033 ft | 135 kts | 287° |
| 2026-05-06 17:52 | 48.35981 | 12.05311 | 4050 ft | 135 kts | 289° |
| 2026-05-06 17:52 | 48.36129 | 12.03975 | 4183 ft | 132 kts | 272° |
| 2026-05-06 17:52 | 48.36124 | 12.02580 | 4314 ft | 135 kts | 271° |
| 2026-05-06 17:52 | 48.36050 | 12.01156 | 4177 ft | 137 kts | 266° |
| 2026-05-06 17:53 | 48.35930 | 11.99718 | 4005 ft | 136 kts | 266° |
| 2026-05-06 17:53 | 48.35826 | 11.98341 | 3830 ft | 130 kts | 266° |
| 2026-05-06 17:53 | 48.35729 | 11.97044 | 3648 ft | 120 kts | 267° |
| 2026-05-06 17:53 | 48.35638 | 11.95835 | 3479 ft | 111 kts | 267° |
| 2026-05-06 17:54 | 48.35557 | 11.94751 | 3317 ft | 100 kts | 267° |
| 2026-05-06 17:54 | 48.35481 | 11.93735 | 3217 ft | 96 kts | 267° |
| 2026-05-06 17:54 | 48.35406 | 11.92723 | 3104 ft | 99 kts | 266° |
| 2026-05-06 17:54 | 48.35327 | 11.91667 | 2976 ft | 104 kts | 266° |
| 2026-05-06 17:55 | 48.35244 | 11.90564 | 2839 ft | 107 kts | 266° |
| 2026-05-06 17:55 | 48.35159 | 11.89437 | 2688 ft | 108 kts | 266° |
| 2026-05-06 17:55 | 48.35075 | 11.88315 | 2538 ft | 110 kts | 265° |
| 2026-05-06 17:55 | 48.34987 | 11.87153 | 2381 ft | 112 kts | 265° |
| 2026-05-06 17:56 | 48.34896 | 11.85996 | 2243 ft | 113 kts | 265° |
| 2026-05-06 17:56 | 48.34823 | 11.84833 | 2134 ft | 113 kts | 265° |
| 2026-05-06 17:56 | 48.34733 | 11.83681 | 1923 ft | 109 kts | 265° |
| 2026-05-06 17:56 | 48.34648 | 11.82544 | 1781 ft | 110 kts | 264° |
| 2026-05-06 17:57 | 48.34554 | 11.81391 | 1657 ft | 113 kts | 263° |
| 2026-05-06 17:57 | 48.34462 | 11.80218 | 1497 ft | 109 kts | 263° |
| 2026-05-06 17:57 | 48.34383 | 11.79200 | 1472 ft | 76 kts | 263° |
| 2026-05-06 17:57 | 48.34359 | 11.78698 | 1475 ft | 34 kts | 285° |
| 2026-05-06 17:58 | 48.34408 | 11.78486 | 1474 ft | 17 kts | 294° |
| 2026-05-06 17:58 | 48.34442 | 11.78368 | 1473 ft | 9 kts | 293° |
| 2026-05-06 17:58 | 48.34470 | 11.78271 | 1472 ft | 11 kts | 293° |
| 2026-05-06 17:58 | 48.34493 | 11.78191 | 1472 ft | 5 kts | 294° |
| 2026-05-06 17:59 | 48.34500 | 11.78167 | 1472 ft | 4 kts | 293° |
| 2026-05-06 17:59 | 48.34520 | 11.78096 | 1471 ft | 11 kts | 293° |
| 2026-05-06 17:59 | 48.34553 | 11.77980 | 1471 ft | 9 kts | 288° |
| 2026-05-06 17:59 | 48.34552 | 11.77860 | 1471 ft | 12 kts | 263° |
| 2026-05-06 18:00 | 48.34542 | 11.77726 | 1472 ft | 13 kts | 263° |
| 2026-05-06 18:00 | 48.34531 | 11.77591 | 1472 ft | 10 kts | 264° |
| 2026-05-06 18:00 | 48.34527 | 11.77496 | 1472 ft | 5 kts | 280° |
| 2026-05-06 18:00 | 48.34540 | 11.77455 | 1472 ft | 0 kts | 312° |
| 2026-05-06 18:01 | 48.34541 | 11.77455 | 1472 ft | 0 kts | 312° |
| 2026-05-06 18:01 | 48.34542 | 11.77453 | 1472 ft | 1 kts | 316° |
| 2026-05-06 18:02 | 48.34569 | 11.77434 | 1472 ft | 6 kts | 346° |
| 2026-05-06 18:02 | 48.34630 | 11.77421 | 1472 ft | 11 kts | 353° |
| 2026-05-06 18:02 | 48.34714 | 11.77406 | 1472 ft | 12 kts | 354° |
| 2026-05-06 18:02 | 48.34771 | 11.77392 | 1472 ft | 8 kts | 336° |
| 2026-05-06 18:03 | 48.34798 | 11.77318 | 1472 ft | 8 kts | 267° |
| 2026-05-06 18:03 | 48.34792 | 11.77234 | 1472 ft | 8 kts | 264° |
| 2026-05-06 18:03 | 48.34785 | 11.77144 | 1472 ft | 9 kts | 264° |
| 2026-05-06 18:03 | 48.34777 | 11.77038 | 1472 ft | 10 kts | 263° |
| 2026-05-06 18:04 | 48.34765 | 11.76983 | 1472 ft | 4 kts | 212° |
| 2026-05-06 18:04 | 48.34728 | 11.76976 | 1472 ft | 6 kts | 176° |
| 2026-05-06 18:04 | 48.34706 | 11.76953 | 1472 ft | 4 kts | 263° |
| 2026-05-06 18:04 | 48.34702 | 11.76910 | 1472 ft | 0 kts | 263° |
| 2026-05-06 18:05 | 48.34703 | 11.76913 | 1472 ft | 1 kts | 263° |
| 2026-05-06 18:05 | 48.34703 | 11.76918 | 1472 ft | 0 kts | 263° |